createdAt,value
2018-08-25T00:01:02.665Z,11.33
2018-08-25T00:03:30.588Z,13.27
2018-08-25T00:05:58.529Z,12.20
2018-08-25T00:08:26.451Z,10.40
2018-08-25T00:10:55.386Z,11.07
2018-08-25T00:13:23.911Z,12.30
2018-08-25T00:15:51.844Z,13.70
2018-08-25T00:18:19.750Z,12.97
2018-08-25T00:20:47.668Z,11.10
2018-08-25T00:23:15.582Z,13.90
2018-08-25T00:25:43.492Z,11.43
2018-08-25T00:28:11.454Z,10.77
2018-08-25T00:30:44.946Z,11.73
2018-08-25T00:33:12.915Z,10.70
2018-08-25T00:35:40.823Z,12.77
2018-08-25T00:38:08.778Z,12.97
2018-08-25T00:40:36.646Z,13.20
2018-08-25T00:43:04.525Z,13.70
2018-08-25T00:45:32.474Z,14.43
2018-08-25T00:48:00.878Z,13.57
2018-08-25T00:50:30.201Z,14.33
2018-08-25T00:52:58.188Z,13.37
2018-08-25T00:55:26.083Z,14.47
2018-08-25T00:57:54.767Z,14.47
2018-08-25T01:00:22.719Z,14.47
2018-08-25T01:02:50.715Z,15.43
2018-08-25T01:05:19.176Z,15.53
2018-08-25T01:07:47.076Z,14.60
2018-08-25T01:10:15.000Z,15.27
2018-08-25T01:12:42.936Z,16.23
2018-08-25T01:15:12.369Z,14.70
2018-08-25T01:17:40.831Z,12.80
2018-08-25T01:20:08.745Z,14.77
2018-08-25T01:22:37.387Z,14.10
2018-08-25T01:25:05.631Z,13.77
2018-08-25T01:27:33.524Z,15.53
2018-08-25T01:30:01.423Z,14.57
2018-08-25T01:32:29.296Z,15.13
2018-08-25T01:34:57.231Z,13.90
2018-08-25T01:37:25.133Z,15.50
2018-08-25T01:39:53.063Z,15.43
2018-08-25T01:42:21.645Z,14.77
2018-08-25T01:44:49.568Z,13.70
2018-08-25T01:47:17.434Z,14.53
2018-08-25T01:49:45.327Z,12.40
2018-08-25T01:52:13.237Z,12.83
2018-08-25T01:54:41.099Z,14.63
2018-08-25T01:57:09.625Z,15.27
2018-08-25T01:59:37.637Z,14.00
2018-08-25T02:02:05.994Z,15.47
2018-08-25T02:04:36.560Z,14.00
2018-08-25T02:07:08.289Z,15.77
2018-08-25T02:09:39.422Z,13.60
2018-08-25T02:12:07.345Z,13.00
2018-08-25T02:14:35.827Z,13.47
2018-08-25T02:17:03.735Z,13.33
2018-08-25T02:19:32.150Z,11.50
2018-08-25T02:22:00.376Z,9.77
2018-08-25T02:24:28.237Z,11.50
2018-08-25T02:26:56.088Z,10.17
2018-08-25T02:29:23.971Z,9.67
2018-08-25T02:31:52.771Z,9.70
2018-08-25T02:34:21.197Z,9.30
2018-08-25T02:36:49.076Z,11.10
2018-08-25T02:39:17.671Z,10.40
2018-08-25T02:41:45.550Z,10.00
2018-08-25T02:44:13.859Z,11.10
2018-08-25T02:46:41.736Z,9.83
2018-08-25T02:49:09.694Z,11.33
2018-08-25T02:51:37.644Z,9.60
2018-08-25T02:54:05.842Z,9.07
2018-08-25T02:56:35.008Z,10.20
2018-08-25T02:59:03.292Z,9.90
2018-08-25T03:01:31.912Z,10.50
2018-08-25T03:03:59.838Z,10.23
2018-08-25T03:06:28.355Z,10.43
2018-08-25T03:08:56.270Z,9.77
2018-08-25T03:11:24.157Z,10.87
2018-08-25T03:13:52.117Z,9.30
2018-08-25T03:16:20.570Z,10.63
2018-08-25T03:18:49.123Z,9.40
2018-08-25T03:21:18.183Z,9.40
2018-08-25T03:23:46.086Z,9.10
2018-08-25T03:26:14.605Z,9.10
2018-08-25T03:28:42.491Z,7.97
2018-08-25T03:31:11.098Z,7.87
2018-08-25T03:33:39.044Z,8.50
2018-08-25T03:36:07.654Z,8.13
2018-08-25T03:38:38.440Z,8.67
2018-08-25T03:41:07.165Z,8.87
2018-08-25T03:43:37.923Z,8.67
2018-08-25T03:46:06.579Z,8.70
2018-08-25T03:48:37.854Z,8.90
2018-08-25T03:51:06.234Z,7.67
2018-08-25T03:53:39.562Z,9.70
2018-08-25T03:56:12.673Z,7.67
2018-08-25T03:58:42.366Z,9.40
2018-08-25T04:01:16.459Z,8.93
2018-08-25T04:03:49.486Z,8.60
2018-08-25T04:06:18.053Z,8.63
2018-08-25T04:08:49.445Z,9.60
2018-08-25T04:11:29.009Z,9.53
2018-08-25T04:14:02.870Z,9.10
2018-08-25T04:16:34.295Z,8.90
2018-08-25T04:19:04.150Z,7.57
2018-08-25T04:21:32.840Z,9.10
2018-08-25T04:24:13.529Z,8.60
2018-08-25T04:26:41.580Z,8.90
2018-08-25T04:29:13.383Z,8.60
2018-08-25T04:31:46.265Z,9.70
2018-08-25T04:34:19.424Z,9.47
2018-08-25T04:36:52.694Z,8.20
2018-08-25T04:39:24.292Z,8.17
2018-08-25T04:41:57.804Z,9.40
2018-08-25T04:44:31.502Z,8.80
2018-08-25T04:47:01.598Z,9.90
2018-08-25T04:49:34.003Z,10.30
2018-08-25T04:52:10.928Z,9.17
2018-08-25T04:54:43.769Z,8.80
2018-08-25T04:57:14.106Z,10.57
2018-08-25T04:59:45.643Z,10.13
2018-08-25T05:02:16.113Z,10.30
2018-08-25T05:04:47.891Z,9.70
2018-08-25T05:07:19.448Z,10.70
2018-08-25T05:09:51.340Z,10.20
2018-08-25T05:12:24.017Z,9.40
2018-08-25T05:14:57.020Z,9.70
2018-08-25T05:17:30.508Z,10.07
2018-08-25T05:20:01.250Z,9.73
2018-08-25T05:22:35.860Z,9.23
2018-08-25T05:25:07.722Z,9.97
2018-08-25T05:27:42.301Z,9.90
2018-08-25T05:30:16.582Z,9.67
2018-08-25T05:32:49.718Z,10.47
2018-08-25T05:35:20.033Z,9.30
2018-08-25T05:37:51.438Z,9.93
2018-08-25T05:40:26.780Z,10.40
2018-08-25T05:43:00.732Z,8.90
2018-08-25T05:45:32.812Z,9.87
2018-08-25T05:48:12.303Z,9.40
2018-08-25T05:50:44.737Z,10.10
2018-08-25T05:53:18.646Z,8.47
2018-08-25T05:55:51.107Z,9.07
2018-08-25T05:58:23.697Z,9.17
2018-08-25T06:01:06.020Z,10.87
2018-08-25T06:03:37.759Z,9.50
2018-08-25T06:06:10.129Z,10.37
2018-08-25T06:08:44.336Z,10.40
2018-08-25T06:11:17.251Z,10.47
2018-08-25T06:13:53.330Z,10.80
2018-08-25T06:16:25.855Z,9.03
2018-08-25T06:18:56.455Z,10.63
2018-08-25T06:21:30.220Z,10.80
2018-08-25T06:24:04.538Z,11.10
2018-08-25T06:26:36.746Z,11.17
2018-08-25T06:29:09.575Z,9.27
2018-08-25T06:31:40.406Z,10.23
2018-08-25T06:34:11.067Z,9.60
2018-08-25T06:36:41.803Z,12.10
2018-08-25T06:39:15.568Z,9.47
2018-08-25T06:41:47.171Z,10.40
2018-08-25T06:44:17.654Z,10.37
2018-08-25T06:46:48.777Z,10.60
2018-08-25T06:49:19.921Z,10.23
2018-08-25T06:51:49.975Z,10.53
2018-08-25T06:57:00.367Z,9.33
2018-08-25T06:59:32.296Z,10.37
2018-08-25T07:02:03.783Z,11.03
2018-08-25T07:04:37.815Z,11.20
2018-08-25T07:07:09.367Z,10.10
2018-08-25T07:09:40.888Z,10.90
2018-08-25T07:12:12.390Z,10.47
2018-08-25T07:14:46.489Z,11.40
2018-08-25T07:17:20.637Z,11.50
2018-08-25T07:19:50.864Z,11.80
2018-08-25T07:22:26.197Z,11.47
2018-08-25T07:24:56.094Z,12.50
2018-08-25T07:27:27.981Z,10.67
2018-08-25T07:30:00.708Z,10.87
2018-08-25T07:32:37.131Z,12.20
2018-08-25T07:35:07.874Z,12.40
2018-08-25T07:37:38.390Z,12.30
2018-08-25T07:40:09.841Z,13.27
2018-08-25T07:42:41.323Z,11.53
2018-08-25T07:45:16.224Z,12.33
2018-08-25T07:47:49.205Z,12.00
2018-08-25T07:50:23.739Z,11.37
2018-08-25T07:53:10.334Z,11.47
2018-08-25T07:55:39.083Z,11.30
2018-08-25T07:58:08.144Z,11.43
2018-08-25T08:00:36.635Z,10.07
2018-08-25T08:03:04.915Z,11.40
2018-08-25T08:05:32.812Z,10.87
2018-08-25T08:08:01.388Z,11.43
2018-08-25T08:10:29.972Z,12.00
2018-08-25T08:12:58.391Z,11.93
2018-08-25T08:15:26.885Z,12.70
2018-08-25T08:17:54.825Z,12.07
2018-08-25T08:20:23.135Z,11.10
2018-08-25T08:22:51.104Z,11.83
2018-08-25T08:25:19.041Z,10.50
2018-08-25T08:27:47.776Z,11.33
2018-08-25T08:30:15.694Z,9.50
2018-08-25T08:32:43.585Z,10.40
2018-08-25T08:35:11.453Z,11.70
2018-08-25T08:37:39.547Z,11.07
2018-08-25T08:40:07.553Z,11.83
2018-08-25T08:42:35.871Z,10.93
2018-08-25T08:45:04.451Z,12.00
2018-08-25T08:47:32.776Z,11.50
2018-08-25T08:50:00.668Z,10.47
2018-08-25T08:52:28.529Z,10.80
2018-08-25T08:54:57.852Z,10.93
2018-08-25T08:57:26.663Z,10.63
2018-08-25T08:59:54.521Z,9.53
2018-08-25T09:02:22.409Z,10.77
2018-08-25T09:04:50.905Z,11.07
2018-08-25T09:07:18.782Z,10.90
2018-08-25T09:09:46.638Z,10.43
2018-08-25T09:12:15.188Z,11.40
2018-08-25T09:14:43.073Z,9.77
2018-08-25T09:17:10.950Z,10.27
2018-08-25T09:19:39.826Z,9.80
2018-08-25T09:22:08.412Z,10.03
2018-08-25T09:24:36.314Z,9.80
2018-08-25T09:27:04.472Z,9.87
2018-08-25T09:29:33.076Z,10.00
2018-08-25T09:32:02.033Z,10.70
2018-08-25T09:34:30.884Z,8.20
2018-08-25T09:36:58.917Z,8.30
2018-08-25T09:39:26.743Z,13.77
2018-08-25T09:41:54.685Z,9.00
2018-08-25T09:44:22.642Z,8.97
2018-08-25T09:46:51.359Z,8.17
2018-08-25T09:49:19.220Z,9.20
2018-08-25T09:51:47.229Z,7.90
2018-08-25T09:54:16.387Z,7.70
2018-08-25T09:56:44.266Z,6.70
2018-08-25T09:59:12.799Z,7.40
2018-08-25T10:01:46.264Z,7.30
2018-08-25T10:04:14.946Z,7.27
2018-08-25T10:06:43.569Z,7.10
2018-08-25T10:09:13.257Z,8.57
2018-08-25T10:11:41.749Z,7.27
2018-08-25T10:14:10.236Z,7.83
2018-08-25T10:16:38.133Z,7.50
2018-08-25T10:19:06.062Z,7.03
2018-08-25T10:21:34.212Z,7.20
2018-08-25T10:24:02.083Z,6.30
2018-08-25T10:26:29.960Z,6.80
2018-08-25T10:28:57.865Z,7.70
2018-08-25T10:31:26.090Z,7.33
2018-08-25T10:33:54.689Z,7.13
2018-08-25T10:36:22.618Z,6.97
2018-08-25T10:38:50.564Z,7.83
2018-08-25T10:41:19.593Z,7.07
2018-08-25T10:43:47.760Z,6.90
2018-08-25T10:46:15.835Z,7.23
2018-08-25T10:48:43.735Z,7.53
2018-08-25T10:51:11.902Z,6.73
2018-08-25T10:53:40.358Z,7.57
2018-08-25T10:56:08.309Z,6.60
2018-08-25T10:58:36.293Z,7.27
2018-08-25T11:01:04.251Z,7.23
2018-08-25T11:03:32.799Z,7.13
2018-08-25T11:06:00.664Z,6.90
2018-08-25T11:08:28.571Z,6.77
2018-08-25T11:10:56.477Z,7.63
2018-08-25T11:13:24.393Z,6.43
2018-08-25T11:15:52.280Z,8.30
2018-08-25T11:18:20.224Z,6.20
2018-08-25T11:20:48.203Z,8.47
2018-08-25T11:23:16.092Z,7.43
2018-08-25T11:25:44.025Z,6.73
2018-08-25T11:28:11.919Z,7.40
2018-08-25T11:30:39.848Z,7.10
2018-08-25T11:33:07.815Z,7.50
2018-08-25T11:35:35.742Z,7.23
2018-08-25T11:38:03.756Z,6.90
2018-08-25T11:40:31.882Z,8.03
2018-08-25T11:42:59.832Z,7.23
2018-08-25T11:45:28.518Z,6.10
2018-08-25T11:47:57.182Z,7.30
2018-08-25T11:50:25.046Z,6.63
2018-08-25T11:52:52.920Z,7.70
2018-08-25T11:55:20.842Z,6.70
2018-08-25T11:57:48.711Z,7.20
2018-08-25T12:00:16.601Z,7.60
2018-08-25T12:02:44.462Z,6.63
2018-08-25T12:05:12.408Z,6.27
2018-08-25T12:07:40.959Z,6.90
2018-08-25T12:10:09.662Z,6.47
2018-08-25T12:12:37.581Z,5.97
2018-08-25T12:15:06.276Z,6.90
2018-08-25T12:17:35.356Z,6.30
2018-08-25T12:20:03.470Z,6.20
2018-08-25T12:22:32.044Z,7.03
2018-08-25T12:24:59.963Z,5.33
2018-08-25T12:27:27.895Z,5.60
2018-08-25T12:29:55.893Z,5.47
2018-08-25T12:32:25.039Z,6.10
2018-08-25T12:34:52.938Z,5.93
2018-08-25T12:37:21.521Z,5.67
2018-08-25T12:39:50.183Z,5.93
2018-08-25T12:42:18.042Z,5.60
2018-08-25T12:44:46.451Z,7.30
2018-08-25T12:47:14.966Z,6.10
2018-08-25T12:49:42.896Z,5.50
2018-08-25T12:52:10.843Z,5.07
2018-08-25T12:54:38.752Z,4.60
2018-08-25T12:57:06.627Z,4.53
2018-08-25T12:59:34.533Z,4.23
2018-08-25T13:02:02.885Z,4.80
2018-08-25T13:04:30.869Z,4.33
2018-08-25T13:06:58.757Z,5.10
2018-08-25T13:09:26.982Z,4.93
2018-08-25T13:11:54.898Z,4.70
2018-08-25T13:14:22.780Z,4.70
2018-08-25T13:16:50.700Z,4.80
2018-08-25T13:19:18.632Z,4.47
2018-08-25T13:21:46.534Z,5.00
2018-08-25T13:24:14.448Z,4.57
2018-08-25T13:26:42.343Z,4.80
2018-08-25T13:29:10.993Z,4.10
2018-08-25T13:31:38.885Z,4.20
2018-08-25T13:34:06.774Z,4.47
2018-08-25T13:36:35.209Z,4.70
2018-08-25T13:39:05.789Z,4.13
2018-08-25T13:41:33.800Z,4.00
2018-08-25T13:44:01.727Z,4.43
2018-08-25T13:46:29.613Z,4.00
2018-08-25T13:48:57.653Z,3.53
2018-08-25T13:51:25.620Z,4.30
2018-08-25T13:53:53.641Z,4.80
2018-08-25T13:56:21.768Z,4.70
2018-08-25T13:58:50.281Z,4.40
2018-08-25T14:01:18.179Z,3.80
2018-08-25T14:03:46.109Z,4.30
2018-08-25T14:06:14.016Z,4.27
2018-08-25T14:08:41.963Z,3.37
2018-08-25T14:11:09.913Z,4.30
2018-08-25T14:13:37.834Z,3.53
2018-08-25T14:16:05.863Z,4.20
2018-08-25T14:18:33.717Z,4.07
2018-08-25T14:21:01.606Z,3.67
2018-08-25T14:23:29.524Z,4.60
2018-08-25T14:25:57.469Z,4.10
2018-08-25T14:28:25.385Z,3.87
2018-08-25T14:30:54.687Z,4.33
2018-08-25T14:33:23.255Z,4.70
2018-08-25T14:35:51.162Z,3.60
2018-08-25T14:38:19.082Z,4.30
2018-08-25T14:40:47.010Z,3.67
2018-08-25T14:43:14.898Z,3.80
2018-08-25T14:45:42.790Z,4.50
2018-08-25T14:48:12.513Z,3.83
2018-08-25T14:50:41.617Z,4.20
2018-08-25T14:53:10.306Z,4.27
2018-08-25T14:55:39.533Z,3.30
2018-08-25T14:58:07.466Z,3.50
2018-08-25T15:00:35.867Z,3.97
2018-08-25T15:03:03.712Z,3.97
2018-08-25T15:05:31.578Z,3.30
2018-08-25T15:07:59.785Z,4.33
2018-08-25T15:10:28.115Z,3.80
2018-08-25T15:12:56.504Z,3.70
2018-08-25T15:15:24.460Z,3.47
2018-08-25T15:17:52.319Z,4.07
2018-08-25T15:20:20.183Z,3.60
2018-08-25T15:22:48.135Z,3.90
2018-08-25T15:25:16.615Z,3.60
2018-08-25T15:27:45.044Z,4.00
2018-08-25T15:30:13.197Z,3.97
2018-08-25T15:32:41.097Z,3.57
2018-08-25T15:35:09.051Z,4.00
2018-08-25T15:37:36.986Z,4.53
2018-08-25T15:40:05.468Z,3.20
2018-08-25T15:42:33.313Z,3.80
2018-08-25T15:45:01.245Z,6.37
2018-08-25T15:47:29.180Z,3.63
2018-08-25T15:49:57.375Z,3.77
2018-08-25T15:52:25.676Z,3.80
2018-08-25T15:54:54.236Z,3.77
2018-08-25T15:57:22.301Z,3.80
2018-08-25T15:59:50.258Z,4.23
2018-08-25T16:02:18.754Z,3.77
2018-08-25T16:04:46.652Z,4.27
2018-08-25T16:07:15.712Z,3.80
2018-08-25T16:09:44.026Z,4.20
2018-08-25T16:12:12.013Z,3.53
2018-08-25T16:14:39.907Z,3.80
2018-08-25T16:17:07.886Z,4.00
2018-08-25T16:19:36.529Z,4.30
2018-08-25T16:22:04.509Z,4.50
2018-08-25T16:24:32.391Z,3.50
2018-08-25T16:27:00.279Z,4.27
2018-08-25T16:29:28.207Z,3.50
2018-08-25T16:31:56.873Z,4.23
2018-08-25T16:34:25.426Z,3.73
2018-08-25T16:36:53.303Z,4.20
2018-08-25T16:39:21.808Z,4.60
2018-08-25T16:41:51.058Z,3.70
2018-08-25T16:44:18.972Z,3.90
2018-08-25T16:46:47.523Z,3.30
2018-08-25T16:49:16.285Z,4.03
2018-08-25T16:51:44.208Z,4.50
2018-08-25T16:54:12.138Z,4.30
2018-08-25T16:56:40.080Z,4.30
2018-08-25T16:59:09.373Z,4.00
2018-08-25T17:01:38.176Z,4.43
2018-08-25T17:04:06.777Z,4.33
2018-08-25T17:06:34.731Z,3.93
2018-08-25T17:09:04.519Z,4.10
2018-08-25T17:11:34.150Z,4.80
2018-08-25T17:14:02.761Z,4.57
2018-08-25T17:16:31.222Z,4.30
2018-08-25T17:19:00.505Z,4.10
2018-08-25T17:21:31.094Z,3.87
2018-08-25T17:24:00.995Z,4.23
2018-08-25T17:26:31.896Z,3.97
2018-08-25T17:29:02.390Z,4.83
2018-08-25T17:31:34.468Z,4.43
2018-08-25T17:34:06.722Z,4.30
2018-08-25T17:36:35.495Z,4.00
2018-08-25T17:39:05.865Z,4.37
2018-08-25T17:41:33.790Z,5.20
2018-08-25T17:44:01.724Z,4.33
2018-08-25T17:46:29.583Z,4.70
2018-08-25T17:48:57.454Z,5.30
2018-08-25T17:51:26.633Z,4.40
2018-08-25T17:53:55.212Z,5.00
2018-08-25T17:56:23.083Z,6.23
2018-08-25T17:58:51.039Z,6.03
2018-08-25T18:01:18.949Z,6.10
2018-08-25T18:03:47.520Z,5.57
2018-08-25T18:06:16.033Z,5.97
2018-08-25T18:08:44.286Z,5.73
2018-08-25T18:11:13.115Z,5.13
2018-08-25T18:13:41.380Z,6.87
2018-08-25T18:16:09.300Z,6.07
2018-08-25T18:18:37.180Z,5.80
2018-08-25T18:21:05.132Z,5.30
2018-08-25T18:23:33.154Z,5.60
2018-08-25T18:26:01.066Z,5.67
2018-08-25T18:28:28.975Z,6.80
2018-08-25T18:30:57.467Z,5.40
2018-08-25T18:33:25.422Z,6.50
2018-08-25T18:35:53.405Z,6.60
2018-08-25T18:38:21.365Z,6.53
2018-08-25T18:40:49.311Z,6.27
2018-08-25T18:43:17.236Z,6.60
2018-08-25T18:45:45.151Z,7.00
2018-08-25T18:48:13.157Z,6.10
2018-08-25T18:50:41.774Z,5.73
2018-08-25T18:53:09.679Z,7.50
2018-08-25T18:55:37.683Z,6.03
2018-08-25T18:58:06.017Z,5.83
2018-08-25T19:00:33.910Z,6.37
2018-08-25T19:03:01.866Z,5.93
2018-08-25T19:05:29.840Z,6.57
2018-08-25T19:07:57.785Z,6.33
2018-08-25T19:10:26.391Z,6.47
2018-08-25T19:12:55.304Z,6.70
2018-08-25T19:15:23.245Z,6.13
2018-08-25T19:17:52.075Z,5.70
2018-08-25T19:20:20.005Z,6.17
2018-08-25T19:22:47.900Z,6.60
2018-08-25T19:25:17.043Z,6.53
2018-08-25T19:27:44.992Z,5.70
2018-08-25T19:30:12.938Z,7.10
2018-08-25T19:32:41.557Z,6.23
2018-08-25T19:35:09.471Z,6.33
2018-08-25T19:37:38.069Z,5.77
2018-08-25T19:40:06.227Z,6.90
2018-08-25T19:42:34.197Z,6.30
2018-08-25T19:45:02.153Z,6.23
2018-08-25T19:47:30.106Z,6.63
2018-08-25T19:49:57.996Z,5.50
2018-08-25T19:52:25.935Z,5.53
2018-08-25T19:54:53.825Z,5.70
2018-08-25T19:57:22.136Z,6.13
2018-08-25T19:59:50.152Z,6.80
2018-08-25T20:02:18.294Z,5.70
2018-08-25T20:04:46.762Z,5.83
2018-08-25T20:07:15.349Z,6.67
2018-08-25T20:09:43.250Z,4.97
2018-08-25T20:12:11.797Z,5.57
2018-08-25T20:14:39.732Z,5.67
2018-08-25T20:17:07.635Z,5.70
2018-08-25T20:19:35.547Z,5.77
2018-08-25T20:22:04.129Z,5.80
2018-08-25T20:24:33.389Z,5.63
2018-08-25T20:27:01.433Z,6.60
2018-08-25T20:29:29.386Z,5.57
2018-08-25T20:31:57.386Z,5.97
2018-08-25T20:34:25.308Z,6.07
2018-08-25T20:36:53.245Z,5.90
2018-08-25T20:39:21.140Z,5.97
2018-08-25T20:41:49.064Z,6.20
2018-08-25T20:44:17.965Z,6.27
2018-08-25T20:46:45.862Z,5.50
2018-08-25T20:49:14.264Z,6.10
2018-08-25T20:51:42.679Z,5.30
2018-08-25T20:54:11.855Z,5.03
2018-08-25T20:56:39.780Z,5.20
2018-08-25T20:59:07.712Z,4.13
2018-08-25T21:01:35.655Z,4.10
2018-08-25T21:04:03.640Z,3.90
2018-08-25T21:06:31.589Z,3.50
2018-08-25T21:08:59.541Z,4.30
2018-08-25T21:11:27.494Z,3.50
2018-08-25T21:13:55.563Z,3.27
2018-08-25T21:16:23.959Z,4.20
2018-08-25T21:18:51.950Z,3.47
2018-08-25T21:21:20.210Z,3.63
2018-08-25T21:23:48.470Z,3.93
2018-08-25T21:26:16.390Z,3.93
2018-08-25T21:28:44.673Z,3.87
2018-08-25T21:31:12.589Z,3.60
2018-08-25T21:33:40.990Z,4.13
2018-08-25T21:36:08.863Z,3.83
2018-08-25T21:38:37.461Z,3.80
2018-08-25T21:41:05.706Z,3.50
2018-08-25T21:43:33.891Z,3.20
2018-08-25T21:46:01.776Z,3.50
2018-08-25T21:48:29.749Z,3.97
2018-08-25T21:50:59.009Z,3.57
2018-08-25T21:53:26.900Z,3.97
2018-08-25T21:55:54.768Z,5.80
2018-08-25T21:58:22.724Z,3.50
2018-08-25T22:00:55.413Z,4.27
2018-08-25T22:03:24.656Z,4.37
2018-08-25T22:05:53.813Z,4.30
2018-08-25T22:08:22.614Z,4.17
2018-08-25T22:10:52.058Z,3.97
2018-08-25T22:13:19.975Z,5.07
2018-08-25T22:15:48.866Z,4.70
2018-08-25T22:18:17.056Z,3.53
2018-08-25T22:20:45.039Z,4.20
2018-08-25T22:23:13.051Z,4.67
2018-08-25T22:25:41.546Z,4.53
2018-08-25T22:28:09.475Z,4.20
2018-08-25T22:30:38.045Z,4.20
2018-08-25T22:33:06.017Z,4.97
2018-08-25T22:35:34.664Z,4.73
2018-08-25T22:38:02.712Z,4.07
2018-08-25T22:40:30.683Z,4.70
2018-08-25T22:42:58.628Z,4.87
2018-08-25T22:45:27.153Z,4.50
2018-08-25T22:47:55.088Z,4.60
2018-08-25T22:50:23.553Z,4.17
2018-08-25T22:52:52.318Z,4.13
2018-08-25T22:55:21.697Z,4.20
2018-08-25T22:57:50.180Z,4.33
2018-08-25T23:00:18.479Z,3.87
2018-08-25T23:02:46.365Z,4.07
2018-08-25T23:05:14.289Z,4.13
2018-08-25T23:07:42.874Z,4.27
2018-08-25T23:10:10.731Z,4.90
2018-08-25T23:12:38.633Z,4.80
2018-08-25T23:15:06.600Z,4.13
2018-08-25T23:17:34.955Z,3.87
2018-08-25T23:20:03.000Z,4.47
2018-08-25T23:22:31.171Z,4.80
2018-08-25T23:24:59.059Z,4.67
2018-08-25T23:27:26.971Z,4.40
2018-08-25T23:29:54.908Z,4.60
2018-08-25T23:32:22.782Z,5.67
2018-08-25T23:34:51.234Z,4.67
2018-08-25T23:37:19.736Z,4.70
2018-08-25T23:39:47.639Z,4.97
2018-08-25T23:42:16.147Z,3.90
2018-08-25T23:44:44.256Z,5.10
2018-08-25T23:47:12.185Z,5.10
2018-08-25T23:49:40.095Z,4.63
2018-08-25T23:52:08.993Z,4.00
2018-08-25T23:54:36.885Z,4.80
2018-08-25T23:57:05.061Z,5.03
2018-08-25T23:59:32.962Z,4.90
